Airfield :
LOGIN :

Register | Disclaimer

   EN    FR    IT 

 










Legend :    VFR   Marginal VFR   IFR   Intensive IFR   Very Intensive IFR
Visi :
Ceiling :
>= 8 km
>= 3000ft
5 to 8 km
1000 to 3000 ft
1500m to 5 km
500 to 1000 ft
800 to 1500m
200 to 500 ft
< 800m
< 200 ft
Symbols :   Thunderstorms  Fog  Heavy snow  Heavy precipitations  Wind > 20 kt
SIGMETs :     Misc.  Thunderstorms  Icing  Turbulence  Mountain Waves  Volcanic Ashes







- Airport Elevation : 508 ft
- IATA code : HRK


UKHH - Osnova

CURRENT METAR :
  • 160930Z 32005MPS 8000 BKN005 OVC016 01/M00 Q1020 R25/290062 NOSIG

EXPIRED METARs :
  • 160900Z 33004MPS 3600 -SN BR BKN005 OVC017 01/M01 Q1020 R25/0///72 NOSIG
  • 160830Z 33003MPS 4700 -DZ BR OVC005 01/M01 Q1020 R25/0///72 NOSIG
  • 160800Z 34004MPS 6000 -DZ OVC006 01/M01 Q1020 R25/0///72 NOSIG
  • 160730Z 33005MPS 9999 OVC007 01/M01 Q1019 R25/0///72 NOSIG
  • 160700Z 33005MPS 9999 OVC007 01/M01 Q1019 R25/0///72 NOSIG

TAF AMD TAF UKHH
Valid from the 16 at 08:00 until the 17 at 06:00 UTC


160850Z 1608/1706 32006G12MPS 2100 BR OVC004 TX03/1615Z TN00/1609Z
TEMPO 1609/1615 0600 SHSN FG OVC002 BKN015CB
UKDV FIR / Europe



MET'MAP, your aeronautical weather chart ! - Copyright ORBIFLY December 2007 - Disclaimer

ORBIFLY MET'MAP TEAM :

Programming & Development : Alexandra Zaïnal
Concept & Development : Baudouin d'Aumeries
Co-Development & Prog : Marc-Olivier Méhu
Technical & hardware support : Manuel Goepfert

Contact : metmap@orbifly.com




SOURCES & CREDITS :

   NOAA